Time;durP1;ratioP1;P1;durP2;ratioP2;P2;SDS_P1;SDS_P2;PMS_P1;PMS_P2;Temp;Humidity;BMP_temperature;BMP_pressure;BME280_temperature;BME280_humidity;BME280_pressure;Samples;Min_cycle;Max_cycle;Signal;HPM_P1;HPM_P2
2023/03/04 00:01:39;;;;;;;99.70;35.10;;;;;;;;;;4906530;28;20079;-72
2023/03/04 00:04:05;;;;;;;73.88;29.45;;;;;;;;;;4907892;29;20055;-74
2023/03/04 00:06:30;;;;;;;62.85;24.17;;;;;;;;;;4903828;28;20059;-72
2023/03/04 00:08:55;;;;;;;65.22;24.45;;;;;;;;;;4905663;28;20040;-72
2023/03/04 00:11:21;;;;;;;61.70;24.65;;;;;;;;;;4908358;28;20058;-72
2023/03/04 00:13:46;;;;;;;79.30;29.42;;;;;;;;;;4912013;28;20496;-72
2023/03/04 00:16:12;;;;;;;75.40;30.38;;;;;;;;;;4902823;29;20048;-72
2023/03/04 00:18:37;;;;;;;85.45;32.38;;;;;;;;;;4901798;29;20051;-72
2023/03/04 00:21:03;;;;;;;98.47;36.50;;;;;;;;;;4904740;28;20126;-72
2023/03/04 00:23:28;;;;;;;92.63;35.47;;;;;;;;;;4900926;29;20369;-72
2023/03/04 00:25:54;;;;;;;92.22;32.80;;;;;;;;;;4906167;28;20052;-73
2023/03/04 00:28:19;;;;;;;89.22;34.10;;;;;;;;;;4956294;28;20056;-72
2023/03/04 00:30:44;;;;;;;83.50;33.88;;;;;;;;;;4907895;29;20136;-71
2023/03/04 00:33:10;;;;;;;100.30;35.65;;;;;;;;;;4946635;28;20521;-72
2023/03/04 00:35:35;;;;;;;91.78;35.33;;;;;;;;;;4901743;29;20512;-71
2023/03/04 00:38:01;;;;;;;87.25;35.00;;;;;;;;;;4903011;29;20044;-72
2023/03/04 00:40:26;;;;;;;86.95;34.63;;;;;;;;;;4901925;29;20586;-71
2023/03/04 00:42:52;;;;;;;88.72;36.22;;;;;;;;;;4915309;28;20127;-71
2023/03/04 00:45:17;;;;;;;89.85;33.58;;;;;;;;;;4901345;28;20044;-71
2023/03/04 00:47:43;;;;;;;82.28;33.58;;;;;;;;;;4912087;29;20559;-72
2023/03/04 00:50:09;;;;;;;91.45;36.80;;;;;;;;;;4974257;28;20155;-71
2023/03/04 00:52:34;;;;;;;91.93;33.22;;;;;;;;;;4943504;28;20051;-71
2023/03/04 00:55:00;;;;;;;95.55;34.47;;;;;;;;;;4978106;28;20505;-71
2023/03/04 00:57:25;;;;;;;89.60;34.35;;;;;;;;;;4905662;29;20175;-72
2023/03/04 00:59:51;;;;;;;87.45;32.83;;;;;;;;;;4915133;29;20151;-72
2023/03/04 01:02:16;;;;;;;93.65;34.30;;;;;;;;;;4908832;29;20048;-71
2023/03/04 01:04:42;;;;;;;99.75;33.80;;;;;;;;;;4907539;29;20138;-71
2023/03/04 01:07:08;;;;;;;78.13;33.65;;;;;;;;;;4903344;29;20102;-71
2023/03/04 01:09:33;;;;;;;91.60;34.25;;;;;;;;;;4902848;28;20052;-71
2023/03/04 01:12:01;;;;;;;80.47;30.90;;;;;;;;;;4906680;28;20045;-70
2023/03/04 01:14:26;;;;;;;75.68;29.83;;;;;;;;;;4907608;28;20059;-71
2023/03/04 01:16:52;;;;;;;83.25;32.95;;;;;;;;;;4910167;29;20048;-71
2023/03/04 01:19:17;;;;;;;53.00;22.85;;;;;;;;;;4911415;28;20048;-70
2023/03/04 01:21:43;;;;;;;85.15;31.92;;;;;;;;;;4908146;29;20048;-72
2023/03/04 01:24:08;;;;;;;91.55;32.90;;;;;;;;;;4911169;29;20052;-71
2023/03/04 01:26:34;;;;;;;73.95;28.38;;;;;;;;;;4903826;28;20087;-71
2023/03/04 01:28:59;;;;;;;77.07;29.38;;;;;;;;;;4910668;28;20233;-71
2023/03/04 01:31:25;;;;;;;65.88;27.55;;;;;;;;;;4907859;28;20141;-71
2023/03/04 01:33:51;;;;;;;69.82;28.10;;;;;;;;;;4911088;28;20052;-71
2023/03/04 01:36:16;;;;;;;74.53;29.20;;;;;;;;;;4919194;28;20048;-71
2023/03/04 01:38:42;;;;;;;84.45;32.22;;;;;;;;;;4909963;28;20155;-71
2023/03/04 01:41:07;;;;;;;64.05;25.15;;;;;;;;;;4910565;29;20119;-71
2023/03/04 01:43:35;;;;;;;75.30;32.35;;;;;;;;;;4914997;28;20536;-71
2023/03/04 01:46:01;;;;;;;76.97;30.67;;;;;;;;;;4908295;28;20054;-70
2023/03/04 01:48:32;;;;;;;84.25;32.13;;;;;;;;;;4909050;28;20416;-71
2023/03/04 01:51:01;;;;;;;83.95;32.85;;;;;;;;;;4912694;28;20051;-71
2023/03/04 01:53:28;;;;;;;83.20;32.08;;;;;;;;;;4909664;29;20056;-71
2023/03/04 01:55:56;;;;;;;80.63;32.33;;;;;;;;;;4962194;28;20131;-70
2023/03/04 01:58:27;;;;;;;74.82;32.38;;;;;;;;;;4916543;29;20054;-71
2023/03/04 02:00:52;;;;;;;63.67;27.02;;;;;;;;;;4910548;29;20040;-70
2023/03/04 02:03:19;;;;;;;70.55;29.02;;;;;;;;;;4918664;28;20044;-71
2023/03/04 02:05:48;;;;;;;73.97;30.52;;;;;;;;;;4964615;28;20086;-70
2023/03/04 02:08:14;;;;;;;76.50;30.55;;;;;;;;;;4908519;28;20102;-70
2023/03/04 02:10:42;;;;;;;70.75;26.38;;;;;;;;;;4908731;28;20488;-71
2023/03/04 02:13:08;;;;;;;85.10;32.42;;;;;;;;;;4915132;28;20062;-70
2023/03/04 02:15:34;;;;;;;69.78;29.35;;;;;;;;;;4929986;28;20052;-70
2023/03/04 02:18:00;;;;;;;85.65;34.03;;;;;;;;;;4907383;29;20052;-70
2023/03/04 02:20:29;;;;;;;77.18;30.23;;;;;;;;;;4912373;28;20052;-71
2023/03/04 02:23:03;;;;;;;92.53;33.72;;;;;;;;;;4912352;28;20733;-70
2023/03/04 02:25:36;;;;;;;87.28;32.40;;;;;;;;;;4909654;28;20679;-71
2023/03/04 02:28:02;;;;;;;88.05;35.47;;;;;;;;;;4907480;29;20370;-71
2023/03/04 02:30:27;;;;;;;72.30;29.38;;;;;;;;;;4914066;29;20059;-71
2023/03/04 02:32:53;;;;;;;74.78;29.13;;;;;;;;;;4901741;29;20074;-70
2023/03/04 02:35:20;;;;;;;75.53;32.20;;;;;;;;;;4909359;28;20044;-71
2023/03/04 02:37:45;;;;;;;74.15;30.48;;;;;;;;;;4908017;28;20051;-70
2023/03/04 02:40:33;;;;;;;84.78;33.22;;;;;;;;;;4909568;29;20484;-71
2023/03/04 02:43:00;;;;;;;56.80;24.92;;;;;;;;;;4909824;28;20063;-72
2023/03/04 02:45:41;;;;;;;80.13;34.97;;;;;;;;;;4955023;28;20988;-70
2023/03/04 02:48:07;;;;;;;78.68;33.70;;;;;;;;;;4910398;28;20595;-72
2023/03/04 02:50:44;;;;;;;84.88;34.38;;;;;;;;;;4903901;29;20052;-70
2023/03/04 02:53:09;;;;;;;68.97;28.15;;;;;;;;;;4911460;29;20086;-71
2023/03/04 02:55:35;;;;;;;77.30;32.70;;;;;;;;;;4907088;28;20116;-71
2023/03/04 02:58:01;;;;;;;77.10;32.40;;;;;;;;;;4952247;28;20166;-70
2023/03/04 03:00:27;;;;;;;77.22;32.65;;;;;;;;;;4909549;29;20055;-71
2023/03/04 03:02:53;;;;;;;84.60;34.15;;;;;;;;;;4908942;29;20509;-70
2023/03/04 03:05:19;;;;;;;71.32;31.65;;;;;;;;;;4913634;28;21199;-71
2023/03/04 03:07:44;;;;;;;63.08;28.88;;;;;;;;;;4911439;28;21153;-71
2023/03/04 03:10:10;;;;;;;65.25;26.38;;;;;;;;;;4914884;28;20063;-71
2023/03/04 03:12:36;;;;;;;75.50;31.20;;;;;;;;;;4911479;28;20040;-70
2023/03/04 03:15:03;;;;;;;72.47;30.58;;;;;;;;;;4909672;29;20044;-70
2023/03/04 03:17:28;;;;;;;76.13;31.83;;;;;;;;;;4907593;28;20056;-71
2023/03/04 03:19:53;;;;;;;78.40;34.20;;;;;;;;;;4908574;28;20281;-70
2023/03/04 03:22:19;;;;;;;70.22;28.58;;;;;;;;;;4903009;28;20040;-72
2023/03/04 03:24:45;;;;;;;75.38;31.90;;;;;;;;;;4910801;29;20501;-71
2023/03/04 03:27:10;;;;;;;74.93;31.05;;;;;;;;;;4909340;28;20713;-72
2023/03/04 03:29:35;;;;;;;75.45;30.73;;;;;;;;;;4947739;28;20122;-72
2023/03/04 03:32:01;;;;;;;83.10;33.55;;;;;;;;;;4908298;29;20072;-71
2023/03/04 03:34:26;;;;;;;66.70;28.17;;;;;;;;;;4912320;28;20091;-71
2023/03/04 03:36:52;;;;;;;57.05;25.85;;;;;;;;;;4915649;29;20089;-72
2023/03/04 03:39:18;;;;;;;71.20;29.00;;;;;;;;;;4909088;28;20514;-72
2023/03/04 03:41:44;;;;;;;65.55;26.10;;;;;;;;;;4904308;28;20110;-70
2023/03/04 03:44:09;;;;;;;68.50;30.27;;;;;;;;;;4907201;29;20047;-71
2023/03/04 03:46:35;;;;;;;65.55;28.15;;;;;;;;;;4910585;29;20051;-72
2023/03/04 03:49:00;;;;;;;79.32;34.47;;;;;;;;;;4906764;29;20185;-71
2023/03/04 03:51:26;;;;;;;68.40;29.90;;;;;;;;;;4893981;28;20052;-72
2023/03/04 03:53:51;;;;;;;77.35;30.95;;;;;;;;;;4908211;28;20066;-72
2023/03/04 03:56:17;;;;;;;69.03;30.83;;;;;;;;;;4913747;29;20054;-72
2023/03/04 03:58:42;;;;;;;90.25;36.20;;;;;;;;;;4902310;29;20568;-71
2023/03/04 04:01:08;;;;;;;79.38;33.38;;;;;;;;;;4907453;29;20048;-72
2023/03/04 04:03:34;;;;;;;85.82;34.72;;;;;;;;;;4909900;28;20142;-72
2023/03/04 04:05:59;;;;;;;78.20;31.17;;;;;;;;;;4910249;29;20612;-72
2023/03/04 04:08:25;;;;;;;42.97;19.35;;;;;;;;;;4906899;29;20051;-73
2023/03/04 04:10:50;;;;;;;52.45;21.25;;;;;;;;;;4965990;28;20400;-73
2023/03/04 04:13:16;;;;;;;61.13;27.58;;;;;;;;;;4903523;28;20067;-70
2023/03/04 04:15:41;;;;;;;58.63;23.10;;;;;;;;;;4916307;28;20059;-70
2023/03/04 04:18:07;;;;;;;40.88;18.92;;;;;;;;;;4903953;28;20490;-71
2023/03/04 04:20:33;;;;;;;65.28;30.20;;;;;;;;;;4909707;28;20087;-71
2023/03/04 04:22:58;;;;;;;63.05;26.48;;;;;;;;;;4914174;29;20048;-71
2023/03/04 04:25:24;;;;;;;57.85;26.55;;;;;;;;;;4906690;28;20055;-72
2023/03/04 04:27:49;;;;;;;44.00;20.45;;;;;;;;;;4900216;29;20082;-71
2023/03/04 04:30:15;;;;;;;71.55;30.85;;;;;;;;;;4905160;29;20052;-71
2023/03/04 04:32:40;;;;;;;63.13;27.83;;;;;;;;;;4905502;28;20131;-71
2023/03/04 04:35:07;;;;;;;52.88;21.42;;;;;;;;;;4907546;29;20451;-71
2023/03/04 04:37:32;;;;;;;55.60;23.38;;;;;;;;;;4910869;29;20142;-71
2023/03/04 04:39:58;;;;;;;45.08;22.70;;;;;;;;;;4912661;29;20483;-72
2023/03/04 04:42:23;;;;;;;47.15;21.25;;;;;;;;;;4910992;28;20044;-71
2023/03/04 04:44:49;;;;;;;49.53;23.05;;;;;;;;;;4906416;28;20050;-71
2023/03/04 04:47:14;;;;;;;56.55;26.42;;;;;;;;;;4909791;28;20555;-71
2023/03/04 04:49:40;;;;;;;63.72;26.65;;;;;;;;;;4911963;28;20064;-71
2023/03/04 04:52:05;;;;;;;51.00;19.42;;;;;;;;;;4905430;29;20048;-71
2023/03/04 04:54:31;;;;;;;37.33;17.08;;;;;;;;;;4904577;28;20114;-72
2023/03/04 04:56:56;;;;;;;45.65;21.92;;;;;;;;;;4912341;28;20040;-72
2023/03/04 04:59:21;;;;;;;40.72;20.90;;;;;;;;;;4916156;28;20549;-71
2023/03/04 05:01:47;;;;;;;53.88;24.05;;;;;;;;;;4915167;28;20105;-71
2023/03/04 05:04:12;;;;;;;51.72;22.50;;;;;;;;;;4907630;29;20086;-71
2023/03/04 05:06:39;;;;;;;42.25;20.13;;;;;;;;;;4906835;29;20067;-71
2023/03/04 05:09:05;;;;;;;56.15;25.23;;;;;;;;;;4911319;28;20491;-71
2023/03/04 05:11:30;;;;;;;54.92;25.90;;;;;;;;;;4909652;28;20195;-72
2023/03/04 05:13:55;;;;;;;29.63;15.85;;;;;;;;;;4909035;28;20399;-73
2023/03/04 05:16:21;;;;;;;26.65;13.52;;;;;;;;;;4909501;29;20844;-72
2023/03/04 05:18:46;;;;;;;36.33;15.50;;;;;;;;;;4907564;29;20418;-72
2023/03/04 05:21:12;;;;;;;46.15;21.15;;;;;;;;;;4913059;28;20047;-72
2023/03/04 05:23:40;;;;;;;57.10;23.35;;;;;;;;;;4909426;29;20139;-71
2023/03/04 05:26:07;;;;;;;67.15;29.15;;;;;;;;;;4909521;28;20167;-71
2023/03/04 05:28:33;;;;;;;59.70;26.20;;;;;;;;;;4911591;28;20487;-71
2023/03/04 05:30:59;;;;;;;36.88;16.65;;;;;;;;;;4909055;28;20102;-71
2023/03/04 05:33:25;;;;;;;45.72;22.02;;;;;;;;;;4910591;28;20043;-71
2023/03/04 05:35:50;;;;;;;28.85;13.73;;;;;;;;;;4912833;28;20075;-71
2023/03/04 05:38:18;;;;;;;23.05;13.00;;;;;;;;;;4908488;29;20059;-72
2023/03/04 05:40:44;;;;;;;27.38;13.68;;;;;;;;;;4908011;28;20055;-71
2023/03/04 05:43:09;;;;;;;59.60;28.58;;;;;;;;;;4909798;29;20050;-71
2023/03/04 05:45:35;;;;;;;56.65;25.95;;;;;;;;;;4904374;29;20142;-71
2023/03/04 05:48:02;;;;;;;37.90;19.52;;;;;;;;;;4903696;29;20746;-72
2023/03/04 05:50:27;;;;;;;49.42;21.75;;;;;;;;;;4907049;28;20504;-71
2023/03/04 05:52:53;;;;;;;26.48;14.15;;;;;;;;;;4904947;28;20052;-71
2023/03/04 05:55:19;;;;;;;39.08;19.88;;;;;;;;;;4910289;28;20385;-71
2023/03/04 05:57:45;;;;;;;54.80;24.15;;;;;;;;;;4902167;29;20040;-71
2023/03/04 06:00:12;;;;;;;33.92;14.35;;;;;;;;;;4915821;28;20102;-72
2023/03/04 06:02:41;;;;;;;30.35;16.83;;;;;;;;;;4906349;28;20457;-71
2023/03/04 06:05:07;;;;;;;45.88;21.05;;;;;;;;;;4914678;28;20105;-71
2023/03/04 06:07:33;;;;;;;55.95;25.65;;;;;;;;;;4912209;28;20055;-71
2023/03/04 06:09:59;;;;;;;41.75;18.00;;;;;;;;;;4909708;29;20044;-71
2023/03/04 06:12:24;;;;;;;21.70;13.20;;;;;;;;;;4911286;28;20413;-71
2023/03/04 06:14:50;;;;;;;37.80;16.67;;;;;;;;;;4916056;28;20044;-71
2023/03/04 06:17:15;;;;;;;40.80;19.55;;;;;;;;;;4910666;28;20135;-72
2023/03/04 06:19:41;;;;;;;35.80;14.70;;;;;;;;;;4903723;28;20040;-71
2023/03/04 06:22:07;;;;;;;46.83;22.00;;;;;;;;;;4914276;28;20170;-72
2023/03/04 06:24:34;;;;;;;45.92;22.55;;;;;;;;;;4902643;29;20067;-71
2023/03/04 06:27:00;;;;;;;51.88;23.02;;;;;;;;;;4908921;29;20051;-71
2023/03/04 06:29:25;;;;;;;32.75;17.58;;;;;;;;;;4908542;28;20044;-72
2023/03/04 06:31:51;;;;;;;57.88;24.70;;;;;;;;;;4909999;28;20163;-71
2023/03/04 06:34:17;;;;;;;44.28;21.17;;;;;;;;;;4912841;28;20519;-72
2023/03/04 06:36:42;;;;;;;40.38;19.42;;;;;;;;;;4905650;28;20139;-71
2023/03/04 06:39:08;;;;;;;52.42;24.70;;;;;;;;;;4908806;28;20043;-71
2023/03/04 06:41:34;;;;;;;51.90;24.85;;;;;;;;;;4906228;29;20066;-71
2023/03/04 06:43:59;;;;;;;44.75;22.30;;;;;;;;;;4953939;28;20051;-70
2023/03/04 06:46:25;;;;;;;42.92;21.40;;;;;;;;;;4908558;28;20067;-71
2023/03/04 06:48:50;;;;;;;36.60;16.73;;;;;;;;;;4909713;28;20082;-71
2023/03/04 06:51:16;;;;;;;48.47;23.73;;;;;;;;;;4909724;28;20127;-71
2023/03/04 06:53:41;;;;;;;53.10;24.70;;;;;;;;;;4908453;28;20398;-71
2023/03/04 06:56:10;;;;;;;43.38;20.25;;;;;;;;;;4905779;28;20052;-70
2023/03/04 06:58:35;;;;;;;45.05;20.13;;;;;;;;;;4906683;28;20070;-70
2023/03/04 07:01:13;;;;;;;34.45;17.23;;;;;;;;;;4914951;28;20059;-71
2023/03/04 07:03:39;;;;;;;34.10;15.88;;;;;;;;;;4902134;28;20067;-69
2023/03/04 07:06:04;;;;;;;49.05;24.33;;;;;;;;;;4902452;29;20048;-70
2023/03/04 07:08:30;;;;;;;35.15;19.08;;;;;;;;;;4910236;28;20056;-70
2023/03/04 07:10:55;;;;;;;40.30;19.55;;;;;;;;;;4905019;28;20055;-70
2023/03/04 07:13:20;;;;;;;33.08;18.17;;;;;;;;;;4901391;29;20079;-71
2023/03/04 07:15:46;;;;;;;38.20;18.80;;;;;;;;;;4932210;28;20086;-70
2023/03/04 07:18:11;;;;;;;38.33;16.85;;;;;;;;;;4909293;28;20516;-70
2023/03/04 07:20:37;;;;;;;39.00;18.00;;;;;;;;;;4902448;28;20155;-71
2023/03/04 07:23:02;;;;;;;33.38;16.85;;;;;;;;;;4901099;28;20490;-71
2023/03/04 07:25:28;;;;;;;37.45;19.17;;;;;;;;;;4908133;28;20056;-69
2023/03/04 07:27:53;;;;;;;34.17;17.85;;;;;;;;;;4907063;28;20063;-69
2023/03/04 07:30:19;;;;;;;36.13;20.20;;;;;;;;;;4907289;28;20079;-70
2023/03/04 07:32:44;;;;;;;34.35;18.55;;;;;;;;;;4901195;28;20062;-69
2023/03/04 07:35:10;;;;;;;37.78;20.55;;;;;;;;;;4908641;28;20056;-69
2023/03/04 07:37:35;;;;;;;35.90;19.00;;;;;;;;;;4905468;28;20127;-69
2023/03/04 07:40:01;;;;;;;36.83;19.42;;;;;;;;;;4904011;28;20106;-69
2023/03/04 07:42:26;;;;;;;26.48;15.38;;;;;;;;;;4905149;28;20041;-70
2023/03/04 07:45:00;;;;;;;31.27;17.35;;;;;;;;;;4903613;28;20130;-69
2023/03/04 07:47:26;;;;;;;35.13;18.00;;;;;;;;;;4900799;28;20481;-71
2023/03/04 07:49:52;;;;;;;34.75;18.02;;;;;;;;;;4905567;28;20112;-71
2023/03/04 07:52:17;;;;;;;19.80;11.85;;;;;;;;;;4899514;28;20048;-70
2023/03/04 07:54:43;;;;;;;22.42;12.85;;;;;;;;;;4911378;28;20139;-70
2023/03/04 07:57:08;;;;;;;34.63;16.95;;;;;;;;;;4909774;28;20439;-70
2023/03/04 07:59:34;;;;;;;23.17;12.15;;;;;;;;;;4909349;28;20055;-70
2023/03/04 08:01:59;;;;;;;30.65;15.75;;;;;;;;;;4905083;28;20055;-72
2023/03/04 08:04:25;;;;;;;19.35;10.20;;;;;;;;;;4905417;28;20507;-70
2023/03/04 08:06:50;;;;;;;17.90;9.77;;;;;;;;;;4910686;28;20048;-70
2023/03/04 08:09:15;;;;;;;19.48;11.65;;;;;;;;;;4909293;28;20051;-71
2023/03/04 08:11:42;;;;;;;28.23;15.65;;;;;;;;;;4904029;28;20058;-70
2023/03/04 08:14:08;;;;;;;19.67;11.32;;;;;;;;;;4910759;28;20049;-70
2023/03/04 08:16:33;;;;;;;31.25;16.83;;;;;;;;;;4899334;28;20051;-70
2023/03/04 08:19:00;;;;;;;29.52;16.13;;;;;;;;;;4906352;28;20386;-70
2023/03/04 08:21:26;;;;;;;34.15;17.15;;;;;;;;;;4904086;28;20078;-70
2023/03/04 08:23:52;;;;;;;27.33;15.73;;;;;;;;;;4906442;28;20056;-71
2023/03/04 08:26:21;;;;;;;29.70;15.05;;;;;;;;;;4910988;28;20928;-69
2023/03/04 08:28:46;;;;;;;27.50;15.98;;;;;;;;;;4907005;28;20048;-69
2023/03/04 08:31:14;;;;;;;30.20;18.27;;;;;;;;;;4906070;28;20132;-69
2023/03/04 08:33:40;;;;;;;26.15;15.75;;;;;;;;;;4906210;28;20059;-69
2023/03/04 08:36:06;;;;;;;29.23;16.42;;;;;;;;;;4908326;28;20051;-69
2023/03/04 08:38:31;;;;;;;27.88;15.15;;;;;;;;;;4947802;28;20393;-69
2023/03/04 08:40:57;;;;;;;29.67;16.33;;;;;;;;;;4911721;28;20093;-69
2023/03/04 08:43:24;;;;;;;29.02;15.52;;;;;;;;;;4904607;29;20089;-69
2023/03/04 08:45:50;;;;;;;30.00;16.67;;;;;;;;;;4899990;28;20087;-69
2023/03/04 08:48:17;;;;;;;15.90;10.20;;;;;;;;;;4903135;28;20051;-69
2023/03/04 08:50:44;;;;;;;24.02;13.63;;;;;;;;;;4889301;28;20047;-69
2023/03/04 08:53:09;;;;;;;30.17;17.98;;;;;;;;;;4901745;29;20036;-69
2023/03/04 08:55:37;;;;;;;31.45;16.42;;;;;;;;;;4900881;28;20468;-69
2023/03/04 08:58:02;;;;;;;25.05;14.43;;;;;;;;;;4898060;29;21044;-69
2023/03/04 09:00:28;;;;;;;27.95;14.45;;;;;;;;;;4902548;28;20060;-69
2023/03/04 09:02:54;;;;;;;27.42;16.95;;;;;;;;;;4905909;29;20090;-69
2023/03/04 09:05:20;;;;;;;30.95;17.73;;;;;;;;;;4927301;28;20056;-70
2023/03/04 09:07:46;;;;;;;27.67;15.55;;;;;;;;;;4961352;28;20113;-69
2023/03/04 09:10:12;;;;;;;24.42;15.15;;;;;;;;;;4918672;28;20056;-69
2023/03/04 09:12:37;;;;;;;27.65;17.23;;;;;;;;;;4901521;28;20058;-68
2023/03/04 09:15:04;;;;;;;23.42;13.57;;;;;;;;;;4906327;28;20167;-71
2023/03/04 09:17:31;;;;;;;27.38;15.18;;;;;;;;;;4904182;28;20063;-68
2023/03/04 09:19:56;;;;;;;28.25;16.83;;;;;;;;;;4909287;28;20095;-71
2023/03/04 09:22:22;;;;;;;30.35;16.85;;;;;;;;;;4907183;28;20051;-68
2023/03/04 09:24:48;;;;;;;27.67;16.67;;;;;;;;;;4908369;28;20044;-71
2023/03/04 09:27:13;;;;;;;29.98;16.23;;;;;;;;;;4904738;28;20055;-68
2023/03/04 09:29:39;;;;;;;32.28;16.90;;;;;;;;;;4904188;28;30635;-71
2023/03/04 09:32:05;;;;;;;26.38;13.10;;;;;;;;;;4907600;29;20127;-70
2023/03/04 09:34:30;;;;;;;39.30;17.17;;;;;;;;;;4909933;28;20491;-70
2023/03/04 09:36:56;;;;;;;29.00;18.08;;;;;;;;;;4909950;29;20097;-70
2023/03/04 09:39:21;;;;;;;32.00;17.70;;;;;;;;;;4941174;28;20080;-70
2023/03/04 09:41:51;;;;;;;30.02;16.33;;;;;;;;;;4910666;28;20060;-70
2023/03/04 09:44:27;;;;;;;24.25;10.98;;;;;;;;;;4909319;28;20052;-69
2023/03/04 09:46:55;;;;;;;31.33;17.48;;;;;;;;;;4911566;28;20571;-70
2023/03/04 09:49:21;;;;;;;32.40;18.50;;;;;;;;;;4910169;28;20203;-70
2023/03/04 09:51:56;;;;;;;27.73;16.17;;;;;;;;;;4909812;28;20051;-70
2023/03/04 09:54:29;;;;;;;33.63;16.20;;;;;;;;;;4908797;28;20125;-70
2023/03/04 09:57:04;;;;;;;28.58;17.05;;;;;;;;;;4911097;28;20055;-70
2023/03/04 09:59:46;;;;;;;30.60;17.33;;;;;;;;;;4910448;28;20051;-70
2023/03/04 10:02:28;;;;;;;24.33;15.75;;;;;;;;;;4910532;28;20587;-70
2023/03/04 10:04:58;;;;;;;19.58;11.85;;;;;;;;;;4908948;28;20055;-69
2023/03/04 10:07:32;;;;;;;20.48;11.27;;;;;;;;;;4908215;28;20044;-71
2023/03/04 10:10:03;;;;;;;23.48;14.07;;;;;;;;;;4912645;28;20048;-70
2023/03/04 10:12:33;;;;;;;20.45;12.52;;;;;;;;;;4910667;28;20048;-70
2023/03/04 10:15:03;;;;;;;22.50;12.95;;;;;;;;;;4911175;28;20726;-69
2023/03/04 10:17:31;;;;;;;29.60;16.83;;;;;;;;;;4906364;28;20051;-70
2023/03/04 10:20:17;;;;;;;18.42;12.20;;;;;;;;;;4909330;28;20065;-69
2023/03/04 10:22:45;;;;;;;28.63;15.20;;;;;;;;;;4908484;29;20063;-69
2023/03/04 10:25:19;;;;;;;22.42;12.82;;;;;;;;;;4908930;28;20054;-68
2023/03/04 10:28:11;;;;;;;27.40;14.43;;;;;;;;;;4905938;28;20055;-70
2023/03/04 10:30:52;;;;;;;30.85;18.38;;;;;;;;;;4909408;28;20066;-68
2023/03/04 10:33:26;;;;;;;28.02;16.30;;;;;;;;;;4910219;29;20056;-68
2023/03/04 10:36:05;;;;;;;28.77;15.82;;;;;;;;;;5005652;28;20048;-69
2023/03/04 10:38:36;;;;;;;30.20;15.60;;;;;;;;;;4908957;29;20390;-71
2023/03/04 10:41:14;;;;;;;28.90;16.73;;;;;;;;;;4909434;28;20044;-71
2023/03/04 10:43:42;;;;;;;20.95;12.80;;;;;;;;;;4909007;28;20056;-71
2023/03/04 10:46:11;;;;;;;26.67;15.30;;;;;;;;;;4910005;28;21102;-71
2023/03/04 10:48:39;;;;;;;29.67;15.35;;;;;;;;;;4899641;29;20048;-71
2023/03/04 10:51:22;;;;;;;27.80;13.38;;;;;;;;;;4908729;28;20404;-71
2023/03/04 10:53:54;;;;;;;26.83;14.23;;;;;;;;;;4905944;28;20052;-71
2023/03/04 10:56:41;;;;;;;28.40;15.77;;;;;;;;;;4909547;28;20047;-71
2023/03/04 10:59:41;;;;;;;31.75;16.35;;;;;;;;;;4904733;28;20052;-71
2023/03/04 11:02:18;;;;;;;26.85;12.68;;;;;;;;;;4988275;28;20101;-70
2023/03/04 11:04:53;;;;;;;24.55;13.98;;;;;;;;;;4909018;29;20435;-70
2023/03/04 11:07:26;;;;;;;23.10;12.45;;;;;;;;;;4908785;28;20044;-70
2023/03/04 11:09:52;;;;;;;27.63;12.77;;;;;;;;;;4989901;28;20056;-70
2023/03/04 11:12:21;;;;;;;17.52;9.70;;;;;;;;;;4909417;28;20070;-70
2023/03/04 11:14:51;;;;;;;20.50;11.95;;;;;;;;;;4906789;29;20056;-70
2023/03/04 11:17:18;;;;;;;24.15;14.68;;;;;;;;;;4905319;28;20075;-71
2023/03/04 11:19:47;;;;;;;27.33;14.50;;;;;;;;;;4909787;28;20055;-70
2023/03/04 11:22:18;;;;;;;22.10;10.45;;;;;;;;;;4910274;28;20134;-71
2023/03/04 11:24:53;;;;;;;20.92;12.77;;;;;;;;;;4901567;28;20051;-70
2023/03/04 11:27:41;;;;;;;30.77;16.15;;;;;;;;;;4911526;28;20044;-71
2023/03/04 11:30:28;;;;;;;27.15;17.35;;;;;;;;;;4964986;28;20056;-71
2023/03/04 11:33:07;;;;;;;29.50;16.98;;;;;;;;;;4909094;28;20051;-72
2023/03/04 11:35:52;;;;;;;27.75;15.45;;;;;;;;;;4906568;28;20559;-72
2023/03/04 11:38:20;;;;;;;33.15;18.00;;;;;;;;;;4901573;29;20047;-70
2023/03/04 11:40:53;;;;;;;23.80;14.38;;;;;;;;;;4901095;28;20044;-71
2023/03/04 11:43:35;;;;;;;26.88;14.13;;;;;;;;;;4901644;29;20651;-70
2023/03/04 11:46:35;;;;;;;27.33;15.32;;;;;;;;;;4993129;28;20052;-71
2023/03/04 11:49:31;;;;;;;29.67;15.68;;;;;;;;;;4899595;29;20044;-71
2023/03/04 11:52:03;;;;;;;32.13;17.35;;;;;;;;;;4977177;28;20072;-71
2023/03/04 11:54:37;;;;;;;19.75;11.60;;;;;;;;;;4904708;28;20052;-71
2023/03/04 11:57:19;;;;;;;23.80;11.88;;;;;;;;;;4908149;28;20051;-72
2023/03/04 12:00:03;;;;;;;29.25;15.43;;;;;;;;;;4905366;29;20205;-72
2023/03/04 12:02:58;;;;;;;35.05;18.98;;;;;;;;;;4903980;28;20040;-73
2023/03/04 12:05:33;;;;;;;34.97;21.38;;;;;;;;;;4902587;28;20058;-73
2023/03/04 12:08:20;;;;;;;36.38;19.77;;;;;;;;;;4908125;29;20082;-70
2023/03/04 12:11:11;;;;;;;31.50;16.92;;;;;;;;;;4908687;28;20065;-73
2023/03/04 12:14:31;;;;;;;32.08;17.85;;;;;;;;;;4904119;29;20113;-71
2023/03/04 12:17:41;;;;;;;26.60;15.30;;;;;;;;;;4838163;29;20104;-72
2023/03/04 12:20:40;;;;;;;30.42;17.00;;;;;;;;;;4897876;29;20052;-72
2023/03/04 12:23:18;;;;;;;31.88;15.75;;;;;;;;;;4905762;29;20085;-72
2023/03/04 12:26:06;;;;;;;28.67;14.90;;;;;;;;;;4903898;28;20110;-72
2023/03/04 12:28:51;;;;;;;33.38;18.77;;;;;;;;;;4900900;29;20945;-72
2023/03/04 12:31:45;;;;;;;25.73;16.00;;;;;;;;;;4907728;28;20054;-72
2023/03/04 12:34:45;;;;;;;34.92;17.42;;;;;;;;;;4962362;28;20043;-72
2023/03/04 12:37:44;;;;;;;32.55;17.13;;;;;;;;;;4908623;28;20074;-72
2023/03/04 12:40:51;;;;;;;28.95;15.93;;;;;;;;;;4987540;28;21159;-72
2023/03/04 12:43:25;;;;;;;27.80;13.80;;;;;;;;;;4839915;29;20081;-71
2023/03/04 12:45:50;;;;;;;39.40;16.65;;;;;;;;;;4900146;28;20056;-71
2023/03/04 12:48:40;;;;;;;33.63;18.83;;;;;;;;;;4899426;29;20051;-71
2023/03/04 12:51:26;;;;;;;33.10;19.02;;;;;;;;;;4908630;28;20438;-71
2023/03/04 12:54:24;;;;;;;31.77;18.02;;;;;;;;;;4986555;28;20364;-71
2023/03/04 12:56:50;;;;;;;25.52;15.32;;;;;;;;;;4978142;28;20619;-72
2023/03/04 12:59:21;;;;;;;35.05;19.05;;;;;;;;;;4899827;28;20131;-70
2023/03/04 13:01:55;;;;;;;33.25;16.25;;;;;;;;;;4905495;28;20066;-70
2023/03/04 13:04:45;;;;;;;22.08;12.85;;;;;;;;;;4899671;28;20131;-71
2023/03/04 13:07:35;;;;;;;29.13;13.57;;;;;;;;;;4900033;28;20138;-71
2023/03/04 13:10:09;;;;;;;25.85;13.98;;;;;;;;;;5000873;28;20361;-71
2023/03/04 13:12:48;;;;;;;25.73;14.73;;;;;;;;;;4887429;28;20063;-71
2023/03/04 13:15:20;;;;;;;17.02;10.75;;;;;;;;;;4907199;29;20090;-70
2023/03/04 13:17:54;;;;;;;28.67;17.92;;;;;;;;;;4899436;28;20519;-71
2023/03/04 13:20:40;;;;;;;26.02;16.00;;;;;;;;;;4902096;29;20054;-71
2023/03/04 13:23:08;;;;;;;30.23;16.23;;;;;;;;;;4910686;28;20055;-70
2023/03/04 13:25:35;;;;;;;31.75;16.17;;;;;;;;;;4906439;29;20052;-71
2023/03/04 13:28:10;;;;;;;29.30;17.63;;;;;;;;;;4907750;28;20048;-71
2023/03/04 13:30:36;;;;;;;29.08;14.27;;;;;;;;;;4910070;29;20044;-71
2023/03/04 13:33:14;;;;;;;20.17;12.40;;;;;;;;;;4911986;28;20067;-70
2023/03/04 13:35:45;;;;;;;30.08;15.20;;;;;;;;;;4906169;28;20055;-71
2023/03/04 13:38:32;;;;;;;30.92;17.60;;;;;;;;;;4905860;28;20078;-72
2023/03/04 13:41:22;;;;;;;32.40;15.20;;;;;;;;;;4908479;28;20755;-72
2023/03/04 13:43:49;;;;;;;28.85;14.40;;;;;;;;;;4908688;29;20563;-72
2023/03/04 13:46:17;;;;;;;24.63;13.27;;;;;;;;;;4904584;28;20519;-72
2023/03/04 13:48:49;;;;;;;27.20;14.70;;;;;;;;;;4902789;29;20048;-71
2023/03/04 13:51:30;;;;;;;25.83;14.50;;;;;;;;;;4905307;28;20081;-71
2023/03/04 13:53:59;;;;;;;26.37;14.43;;;;;;;;;;5006122;28;20110;-71
2023/03/04 13:56:30;;;;;;;24.38;12.93;;;;;;;;;;4977979;28;20079;-71
2023/03/04 13:59:08;;;;;;;23.42;13.68;;;;;;;;;;4909915;28;20134;-71
2023/03/04 14:01:47;;;;;;;26.58;12.93;;;;;;;;;;4905409;28;20094;-71
2023/03/04 14:04:17;;;;;;;25.65;13.63;;;;;;;;;;4904353;28;20214;-71
2023/03/04 14:06:53;;;;;;;23.65;13.02;;;;;;;;;;4905841;28;20126;-71
2023/03/04 14:09:21;;;;;;;21.88;12.35;;;;;;;;;;4910233;29;20043;-71
2023/03/04 14:11:49;;;;;;;27.67;13.75;;;;;;;;;;4908408;28;20588;-72
2023/03/04 14:14:21;;;;;;;24.13;13.63;;;;;;;;;;4905478;29;20505;-72
2023/03/04 14:16:52;;;;;;;27.75;13.35;;;;;;;;;;4903871;28;20058;-72
2023/03/04 14:19:43;;;;;;;25.25;14.48;;;;;;;;;;4910527;28;20046;-71
2023/03/04 14:22:29;;;;;;;16.67;10.20;;;;;;;;;;4978526;28;20050;-72
2023/03/04 14:24:57;;;;;;;23.65;12.50;;;;;;;;;;4901766;28;20060;-70
2023/03/04 14:27:22;;;;;;;24.58;13.50;;;;;;;;;;4901612;28;20137;-71
2023/03/04 14:29:58;;;;;;;25.75;13.63;;;;;;;;;;4909545;28;20056;-72
2023/03/04 14:32:25;;;;;;;19.83;11.48;;;;;;;;;;4913968;28;20409;-72